createdAt,value
2023-04-28T00:07:47.009Z,3.05
2023-04-28T00:18:43.545Z,3.04
2023-04-28T00:29:45.570Z,3.05
2023-04-28T00:40:39.215Z,3.04
2023-04-28T00:51:34.682Z,3.03
2023-04-28T01:02:10.908Z,3.02
2023-04-28T01:13:01.933Z,3.02
2023-04-28T01:23:44.951Z,3.00
2023-04-28T01:34:23.751Z,2.99
2023-04-28T01:45:22.002Z,2.99
2023-04-28T01:56:00.501Z,2.98
2023-04-28T02:06:53.467Z,2.97
2023-04-28T02:17:51.033Z,2.97
2023-04-28T02:28:48.910Z,2.97
2023-04-28T02:39:40.725Z,2.96
2023-04-28T02:50:40.062Z,2.96
2023-04-28T03:01:37.415Z,2.96
2023-04-28T03:12:37.377Z,2.95
2023-04-28T03:23:26.200Z,2.94
2023-04-28T03:34:11.562Z,2.94
2023-04-28T03:45:21.260Z,2.93
2023-04-28T03:56:25.961Z,2.93
2023-04-28T04:07:30.789Z,2.94
2023-04-28T04:18:28.745Z,2.95
2023-04-28T04:29:33.461Z,2.96
2023-04-28T04:40:29.742Z,2.99
2023-04-28T04:51:27.000Z,2.99
2023-04-28T05:02:25.476Z,3.02
2023-04-28T05:13:17.250Z,3.02
2023-04-28T05:24:04.786Z,3.05
2023-04-28T05:35:01.659Z,3.08
2023-04-28T05:45:39.906Z,3.10
2023-04-28T05:56:35.410Z,3.12
2023-04-28T06:07:11.355Z,3.15
2023-04-28T06:17:46.896Z,3.17
2023-04-28T06:28:37.407Z,3.19
2023-04-28T06:39:38.886Z,3.23
2023-04-28T06:50:13.752Z,3.26
2023-04-28T07:01:03.213Z,3.30
2023-04-28T07:11:37.367Z,3.30
2023-04-28T07:22:23.070Z,3.33
2023-04-28T07:33:22.018Z,3.30
2023-04-28T07:44:16.954Z,3.30
2023-04-28T07:55:15.327Z,3.30
2023-04-28T08:06:09.572Z,3.34
2023-04-28T08:17:08.208Z,3.36
2023-04-28T08:28:08.151Z,3.31
2023-04-28T08:39:06.291Z,3.34
2023-04-28T08:50:01.596Z,3.34
2023-04-28T09:00:59.143Z,3.34
2023-04-28T09:11:32.256Z,3.32
2023-04-28T09:22:40.654Z,3.30
2023-04-28T09:33:14.572Z,3.33
2023-04-28T09:44:13.112Z,3.33
2023-04-28T09:55:10.163Z,3.31
2023-04-28T10:06:10.132Z,3.33
2023-04-28T10:17:06.533Z,3.32
2023-04-28T10:28:05.922Z,3.33
2023-04-28T10:39:03.590Z,3.33
2023-04-28T10:49:42.814Z,3.33
2023-04-28T11:00:41.180Z,3.34
2023-04-28T11:11:30.151Z,3.34
2023-04-28T11:22:25.372Z,3.36
2023-04-28T11:33:01.417Z,3.37
2023-04-28T11:43:46.583Z,3.37
2023-04-28T11:54:29.375Z,3.38
2023-04-28T12:05:28.940Z,3.38
2023-04-28T12:16:18.288Z,3.36
2023-04-28T12:27:14.169Z,3.34
2023-04-28T12:38:00.658Z,3.34
2023-04-28T12:48:53.140Z,3.34
2023-04-28T12:59:27.363Z,3.34
2023-04-28T13:09:59.887Z,3.34
2023-04-28T13:20:32.792Z,3.33
2023-04-28T13:31:31.064Z,3.34
2023-04-28T13:42:25.915Z,3.33
2023-04-28T13:52:58.619Z,3.34
2023-04-28T14:03:31.116Z,3.33
2023-04-28T14:14:16.065Z,3.34
2023-04-28T14:25:05.818Z,3.34
2023-04-28T14:35:48.697Z,3.35
2023-04-28T14:46:36.557Z,3.38
2023-04-28T14:57:09.103Z,3.36
2023-04-28T15:08:05.839Z,3.35
2023-04-28T15:19:01.924Z,3.34
2023-04-28T15:29:57.253Z,3.34
2023-04-28T15:40:50.382Z,3.34
2023-04-28T15:51:49.874Z,3.36
2023-04-28T16:02:44.714Z,3.34
2023-04-28T16:13:41.145Z,3.34
2023-04-28T16:24:40.991Z,3.34
2023-04-28T16:35:39.576Z,3.34
2023-04-28T16:46:39.481Z,3.36
2023-04-28T16:57:38.653Z,3.34
2023-04-28T17:08:38.489Z,3.36
2023-04-28T17:19:38.235Z,3.37
2023-04-28T17:30:37.550Z,3.34
2023-04-28T17:41:37.913Z,3.33
2023-04-28T17:52:35.257Z,3.30
2023-04-28T18:03:35.336Z,3.29
2023-04-28T18:14:34.323Z,3.28
2023-04-28T18:25:34.733Z,3.27
2023-04-28T18:36:34.977Z,3.26
2023-04-28T18:47:35.229Z,3.25
2023-04-28T18:58:34.425Z,3.25
2023-04-28T19:09:34.316Z,3.25
2023-04-28T19:20:34.095Z,3.23
2023-04-28T19:31:33.996Z,3.23
2023-04-28T19:42:18.755Z,3.22
2023-04-28T19:53:09.330Z,3.21
2023-04-28T20:03:54.675Z,3.20
2023-04-28T20:14:47.646Z,3.19
2023-04-28T20:25:40.840Z,3.19
2023-04-28T20:36:36.128Z,3.18
2023-04-28T20:47:28.200Z,3.18
2023-04-28T20:58:19.894Z,3.17
2023-04-28T21:09:09.850Z,3.16
2023-04-28T21:19:58.034Z,3.16
2023-04-28T21:30:51.337Z,3.15
2023-04-28T21:41:47.263Z,3.15
2023-04-28T21:52:33.512Z,3.14
2023-04-28T22:25:33.043Z,3.13
2023-04-28T22:36:33.964Z,3.13
2023-04-28T22:47:33.626Z,3.13
2023-04-28T22:58:31.929Z,3.12
2023-04-28T23:09:24.122Z,3.12
2023-04-28T23:20:25.314Z,3.11
2023-04-28T23:31:22.355Z,3.11
2023-04-28T23:42:20.294Z,3.10
2023-04-28T23:53:20.136Z,3.10
